sensor_id;sensor_type;location;lat;lon;timestamp;temperature;humidity
27544;DHT22;17996;51.056;3.656;2024-03-17T00:00:49;11.00;99.90
27544;DHT22;17996;51.056;3.656;2024-03-17T00:03:18;11.00;99.90
27544;DHT22;17996;51.056;3.656;2024-03-17T00:05:46;10.90;99.90
27544;DHT22;17996;51.056;3.656;2024-03-17T00:08:13;10.90;99.90
27544;DHT22;17996;51.056;3.656;2024-03-17T00:10:41;10.80;99.90
27544;DHT22;17996;51.056;3.656;2024-03-17T00:13:14;10.80;99.90
27544;DHT22;17996;51.056;3.656;2024-03-17T00:15:43;10.70;99.90
27544;DHT22;17996;51.056;3.656;2024-03-17T00:18:12;10.70;99.90
27544;DHT22;17996;51.056;3.656;2024-03-17T00:20:41;10.60;99.90
27544;DHT22;17996;51.056;3.656;2024-03-17T00:23:11;10.60;99.90
27544;DHT22;17996;51.056;3.656;2024-03-17T00:25:40;10.60;99.90
27544;DHT22;17996;51.056;3.656;2024-03-17T00:28:06;10.60;99.90
27544;DHT22;17996;51.056;3.656;2024-03-17T00:30:35;10.60;99.90
27544;DHT22;17996;51.056;3.656;2024-03-17T00:33:04;10.60;99.90
27544;DHT22;17996;51.056;3.656;2024-03-17T00:35:33;10.60;99.90
27544;DHT22;17996;51.056;3.656;2024-03-17T00:38:02;10.60;99.90
27544;DHT22;17996;51.056;3.656;2024-03-17T00:40:39;10.60;99.90
27544;DHT22;17996;51.056;3.656;2024-03-17T00:43:13;10.60;99.90
27544;DHT22;17996;51.056;3.656;2024-03-17T00:46:02;10.60;99.90
27544;DHT22;17996;51.056;3.656;2024-03-17T00:48:29;10.60;99.90
27544;DHT22;17996;51.056;3.656;2024-03-17T00:50:59;10.60;99.90
27544;DHT22;17996;51.056;3.656;2024-03-17T00:53:25;10.60;99.90
27544;DHT22;17996;51.056;3.656;2024-03-17T00:55:57;10.60;99.90
27544;DHT22;17996;51.056;3.656;2024-03-17T00:58:27;10.70;99.90
27544;DHT22;17996;51.056;3.656;2024-03-17T01:00:57;10.70;99.90
27544;DHT22;17996;51.056;3.656;2024-03-17T01:03:28;10.70;99.90
27544;DHT22;17996;51.056;3.656;2024-03-17T01:05:54;10.70;99.90
27544;DHT22;17996;51.056;3.656;2024-03-17T01:08:23;10.70;99.90
27544;DHT22;17996;51.056;3.656;2024-03-17T01:10:50;10.70;99.90
27544;DHT22;17996;51.056;3.656;2024-03-17T01:13:17;10.80;99.90
27544;DHT22;17996;51.056;3.656;2024-03-17T01:15:55;10.80;99.90
27544;DHT22;17996;51.056;3.656;2024-03-17T01:18:24;10.80;99.90
27544;DHT22;17996;51.056;3.656;2024-03-17T01:20:56;10.70;99.90
27544;DHT22;17996;51.056;3.656;2024-03-17T01:23:23;10.80;99.90
27544;DHT22;17996;51.056;3.656;2024-03-17T01:25:50;10.80;99.90
27544;DHT22;17996;51.056;3.656;2024-03-17T01:28:23;10.70;99.90
27544;DHT22;17996;51.056;3.656;2024-03-17T01:30:49;10.70;99.90
27544;DHT22;17996;51.056;3.656;2024-03-17T01:33:15;10.70;99.90
27544;DHT22;17996;51.056;3.656;2024-03-17T01:35:49;10.70;99.90
27544;DHT22;17996;51.056;3.656;2024-03-17T01:38:17;10.70;99.90
27544;DHT22;17996;51.056;3.656;2024-03-17T01:40:46;10.70;99.90
27544;DHT22;17996;51.056;3.656;2024-03-17T01:43:13;10.60;99.90
27544;DHT22;17996;51.056;3.656;2024-03-17T01:45:42;10.60;99.90
27544;DHT22;17996;51.056;3.656;2024-03-17T01:48:13;10.60;99.90
27544;DHT22;17996;51.056;3.656;2024-03-17T01:50:42;10.60;99.90
27544;DHT22;17996;51.056;3.656;2024-03-17T01:53:10;10.70;99.90
27544;DHT22;17996;51.056;3.656;2024-03-17T01:55:38;10.70;99.90
27544;DHT22;17996;51.056;3.656;2024-03-17T01:58:05;10.70;99.90
27544;DHT22;17996;51.056;3.656;2024-03-17T02:00:37;10.60;99.90
27544;DHT22;17996;51.056;3.656;2024-03-17T02:03:06;10.60;99.90
27544;DHT22;17996;51.056;3.656;2024-03-17T02:05:34;10.60;99.90
27544;DHT22;17996;51.056;3.656;2024-03-17T02:08:04;10.50;99.90
27544;DHT22;17996;51.056;3.656;2024-03-17T02:10:30;10.50;99.90
27544;DHT22;17996;51.056;3.656;2024-03-17T02:12:55;10.50;99.90
27544;DHT22;17996;51.056;3.656;2024-03-17T02:15:21;10.50;99.90
27544;DHT22;17996;51.056;3.656;2024-03-17T02:17:48;10.50;99.90
27544;DHT22;17996;51.056;3.656;2024-03-17T02:20:16;10.50;99.90
27544;DHT22;17996;51.056;3.656;2024-03-17T02:22:43;10.50;99.90
27544;DHT22;17996;51.056;3.656;2024-03-17T02:25:11;10.50;99.90
27544;DHT22;17996;51.056;3.656;2024-03-17T02:27:43;10.40;99.90
27544;DHT22;17996;51.056;3.656;2024-03-17T02:30:09;10.40;99.90
27544;DHT22;17996;51.056;3.656;2024-03-17T02:32:38;10.40;99.90
27544;DHT22;17996;51.056;3.656;2024-03-17T02:35:05;10.40;99.90
27544;DHT22;17996;51.056;3.656;2024-03-17T02:37:32;10.40;99.90
27544;DHT22;17996;51.056;3.656;2024-03-17T02:40:01;10.30;99.90
27544;DHT22;17996;51.056;3.656;2024-03-17T02:42:29;10.30;99.90
27544;DHT22;17996;51.056;3.656;2024-03-17T02:44:56;10.30;99.90
27544;DHT22;17996;51.056;3.656;2024-03-17T02:47:23;10.20;99.90
27544;DHT22;17996;51.056;3.656;2024-03-17T02:49:53;10.20;99.90
27544;DHT22;17996;51.056;3.656;2024-03-17T02:52:19;10.10;99.90
27544;DHT22;17996;51.056;3.656;2024-03-17T02:54:44;10.20;99.90
27544;DHT22;17996;51.056;3.656;2024-03-17T02:57:14;10.10;99.90
27544;DHT22;17996;51.056;3.656;2024-03-17T02:59:43;10.10;99.90
27544;DHT22;17996;51.056;3.656;2024-03-17T03:02:11;10.10;99.90
27544;DHT22;17996;51.056;3.656;2024-03-17T03:04:39;10.20;99.90
27544;DHT22;17996;51.056;3.656;2024-03-17T03:07:07;10.20;99.90
27544;DHT22;17996;51.056;3.656;2024-03-17T03:09:36;10.20;99.90
27544;DHT22;17996;51.056;3.656;2024-03-17T03:12:04;10.20;99.90
27544;DHT22;17996;51.056;3.656;2024-03-17T03:14:38;10.30;99.90
27544;DHT22;17996;51.056;3.656;2024-03-17T03:17:06;10.30;99.90
27544;DHT22;17996;51.056;3.656;2024-03-17T03:19:33;10.20;99.90
27544;DHT22;17996;51.056;3.656;2024-03-17T03:22:02;10.30;99.90
27544;DHT22;17996;51.056;3.656;2024-03-17T03:24:27;10.30;99.90
27544;DHT22;17996;51.056;3.656;2024-03-17T03:26:56;10.30;99.90
27544;DHT22;17996;51.056;3.656;2024-03-17T03:29:25;10.30;99.90
27544;DHT22;17996;51.056;3.656;2024-03-17T03:31:57;10.20;99.90
27544;DHT22;17996;51.056;3.656;2024-03-17T03:34:25;10.20;99.90
27544;DHT22;17996;51.056;3.656;2024-03-17T03:36:54;10.20;99.90
27544;DHT22;17996;51.056;3.656;2024-03-17T03:39:22;10.10;99.90
27544;DHT22;17996;51.056;3.656;2024-03-17T03:41:49;10.10;99.90
27544;DHT22;17996;51.056;3.656;2024-03-17T03:44:17;10.10;99.90
27544;DHT22;17996;51.056;3.656;2024-03-17T03:46:44;10.00;99.90
27544;DHT22;17996;51.056;3.656;2024-03-17T03:49:26;10.00;99.90
27544;DHT22;17996;51.056;3.656;2024-03-17T03:51:53;10.00;99.90
27544;DHT22;17996;51.056;3.656;2024-03-17T03:54:22;9.90;99.90
27544;DHT22;17996;51.056;3.656;2024-03-17T03:56:49;9.90;99.90
27544;DHT22;17996;51.056;3.656;2024-03-17T03:59:18;9.90;99.90
27544;DHT22;17996;51.056;3.656;2024-03-17T04:01:47;9.80;99.90
27544;DHT22;17996;51.056;3.656;2024-03-17T04:04:14;9.80;99.90
27544;DHT22;17996;51.056;3.656;2024-03-17T04:06:43;9.80;99.90
27544;DHT22;17996;51.056;3.656;2024-03-17T04:09:12;9.80;99.90
27544;DHT22;17996;51.056;3.656;2024-03-17T04:11:49;9.80;99.90
27544;DHT22;17996;51.056;3.656;2024-03-17T04:14:21;9.80;99.90
27544;DHT22;17996;51.056;3.656;2024-03-17T04:16:50;9.80;99.90
27544;DHT22;17996;51.056;3.656;2024-03-17T04:19:18;9.80;99.90
27544;DHT22;17996;51.056;3.656;2024-03-17T04:21:44;9.80;99.90
27544;DHT22;17996;51.056;3.656;2024-03-17T04:24:17;9.80;99.90
27544;DHT22;17996;51.056;3.656;2024-03-17T04:26:51;9.70;99.90
27544;DHT22;17996;51.056;3.656;2024-03-17T04:29:26;9.70;99.90
27544;DHT22;17996;51.056;3.656;2024-03-17T04:31:54;9.70;99.90
27544;DHT22;17996;51.056;3.656;2024-03-17T04:34:47;9.70;99.90
27544;DHT22;17996;51.056;3.656;2024-03-17T04:37:14;9.70;99.90
27544;DHT22;17996;51.056;3.656;2024-03-17T04:39:44;9.70;99.90
27544;DHT22;17996;51.056;3.656;2024-03-17T04:42:14;9.70;99.90
27544;DHT22;17996;51.056;3.656;2024-03-17T04:44:58;9.70;99.90
27544;DHT22;17996;51.056;3.656;2024-03-17T04:47:24;9.70;99.90
27544;DHT22;17996;51.056;3.656;2024-03-17T04:49:58;9.70;99.90
27544;DHT22;17996;51.056;3.656;2024-03-17T04:52:28;9.70;99.90
27544;DHT22;17996;51.056;3.656;2024-03-17T04:54:59;9.70;99.90
27544;DHT22;17996;51.056;3.656;2024-03-17T04:57:39;9.70;99.90
27544;DHT22;17996;51.056;3.656;2024-03-17T05:00:14;9.70;99.90
27544;DHT22;17996;51.056;3.656;2024-03-17T05:02:55;9.70;99.90
27544;DHT22;17996;51.056;3.656;2024-03-17T05:05:24;9.70;99.90
27544;DHT22;17996;51.056;3.656;2024-03-17T05:07:52;9.70;99.90
27544;DHT22;17996;51.056;3.656;2024-03-17T05:10:18;9.70;99.90
27544;DHT22;17996;51.056;3.656;2024-03-17T05:12:47;9.80;99.90
27544;DHT22;17996;51.056;3.656;2024-03-17T05:15:21;9.80;99.90
27544;DHT22;17996;51.056;3.656;2024-03-17T05:17:53;9.80;99.90
27544;DHT22;17996;51.056;3.656;2024-03-17T05:20:22;9.80;99.90
27544;DHT22;17996;51.056;3.656;2024-03-17T05:22:49;9.80;99.90
27544;DHT22;17996;51.056;3.656;2024-03-17T05:25:18;9.90;99.90
27544;DHT22;17996;51.056;3.656;2024-03-17T05:27:46;9.90;99.90
27544;DHT22;17996;51.056;3.656;2024-03-17T05:30:18;9.90;99.90
27544;DHT22;17996;51.056;3.656;2024-03-17T05:33:09;9.90;99.90
27544;DHT22;17996;51.056;3.656;2024-03-17T05:38:47;9.90;99.90
27544;DHT22;17996;51.056;3.656;2024-03-17T05:41:29;9.90;99.90
27544;DHT22;17996;51.056;3.656;2024-03-17T05:43:55;9.90;99.90
27544;DHT22;17996;51.056;3.656;2024-03-17T05:46:28;9.90;99.90
27544;DHT22;17996;51.056;3.656;2024-03-17T05:49:14;9.90;99.90
27544;DHT22;17996;51.056;3.656;2024-03-17T05:51:43;10.00;99.90
27544;DHT22;17996;51.056;3.656;2024-03-17T05:54:13;10.00;99.90
27544;DHT22;17996;51.056;3.656;2024-03-17T05:56:41;10.00;99.90
27544;DHT22;17996;51.056;3.656;2024-03-17T05:59:10;10.00;99.90
27544;DHT22;17996;51.056;3.656;2024-03-17T06:01:48;10.00;99.90
27544;DHT22;17996;51.056;3.656;2024-03-17T06:04:21;10.00;99.90
27544;DHT22;17996;51.056;3.656;2024-03-17T06:06:52;10.10;99.90
27544;DHT22;17996;51.056;3.656;2024-03-17T06:09:18;10.10;99.90
27544;DHT22;17996;51.056;3.656;2024-03-17T06:11:48;10.10;99.90
27544;DHT22;17996;51.056;3.656;2024-03-17T06:14:37;10.20;99.90
27544;DHT22;17996;51.056;3.656;2024-03-17T06:17:25;10.20;99.90
27544;DHT22;17996;51.056;3.656;2024-03-17T06:20:00;10.30;99.90
27544;DHT22;17996;51.056;3.656;2024-03-17T06:22:32;10.30;99.90
27544;DHT22;17996;51.056;3.656;2024-03-17T06:25:16;10.30;99.90
27544;DHT22;17996;51.056;3.656;2024-03-17T06:27:45;10.40;99.90
27544;DHT22;17996;51.056;3.656;2024-03-17T06:30:25;10.40;99.90
27544;DHT22;17996;51.056;3.656;2024-03-17T06:32:53;10.50;99.90
27544;DHT22;17996;51.056;3.656;2024-03-17T06:35:25;10.40;99.90
27544;DHT22;17996;51.056;3.656;2024-03-17T06:37:55;10.50;99.90
27544;DHT22;17996;51.056;3.656;2024-03-17T06:40:29;10.50;99.90
27544;DHT22;17996;51.056;3.656;2024-03-17T06:43:18;10.60;99.90
27544;DHT22;17996;51.056;3.656;2024-03-17T06:45:59;10.60;99.90
27544;DHT22;17996;51.056;3.656;2024-03-17T06:48:34;10.60;99.90
27544;DHT22;17996;51.056;3.656;2024-03-17T06:51:04;10.70;99.90
27544;DHT22;17996;51.056;3.656;2024-03-17T06:53:33;10.70;99.90
27544;DHT22;17996;51.056;3.656;2024-03-17T06:56:07;10.80;99.90
27544;DHT22;17996;51.056;3.656;2024-03-17T06:58:47;10.80;99.90
27544;DHT22;17996;51.056;3.656;2024-03-17T07:01:16;10.80;99.90
27544;DHT22;17996;51.056;3.656;2024-03-17T07:03:49;10.80;99.90
27544;DHT22;17996;51.056;3.656;2024-03-17T07:06:18;10.90;99.90
27544;DHT22;17996;51.056;3.656;2024-03-17T07:08:45;10.90;99.90
27544;DHT22;17996;51.056;3.656;2024-03-17T07:11:13;11.00;99.90
27544;DHT22;17996;51.056;3.656;2024-03-17T07:13:40;11.10;99.90
27544;DHT22;17996;51.056;3.656;2024-03-17T07:16:10;11.10;99.90
27544;DHT22;17996;51.056;3.656;2024-03-17T07:18:40;11.20;99.90
27544;DHT22;17996;51.056;3.656;2024-03-17T07:21:14;11.20;99.90
27544;DHT22;17996;51.056;3.656;2024-03-17T07:23:43;11.30;99.90
27544;DHT22;17996;51.056;3.656;2024-03-17T07:26:12;11.30;99.90
27544;DHT22;17996;51.056;3.656;2024-03-17T07:28:40;11.30;99.90
27544;DHT22;17996;51.056;3.656;2024-03-17T07:31:15;11.40;99.90
27544;DHT22;17996;51.056;3.656;2024-03-17T07:33:42;11.40;99.90
27544;DHT22;17996;51.056;3.656;2024-03-17T07:36:09;11.40;99.90
27544;DHT22;17996;51.056;3.656;2024-03-17T07:38:37;11.50;99.90
27544;DHT22;17996;51.056;3.656;2024-03-17T07:41:12;11.50;99.90
27544;DHT22;17996;51.056;3.656;2024-03-17T07:43:38;11.60;99.90
27544;DHT22;17996;51.056;3.656;2024-03-17T07:46:08;11.60;99.90
27544;DHT22;17996;51.056;3.656;2024-03-17T07:48:36;11.60;99.90
27544;DHT22;17996;51.056;3.656;2024-03-17T07:51:09;11.60;99.90
27544;DHT22;17996;51.056;3.656;2024-03-17T07:53:41;11.70;99.90
27544;DHT22;17996;51.056;3.656;2024-03-17T07:56:09;11.70;99.90
27544;DHT22;17996;51.056;3.656;2024-03-17T07:58:40;11.80;99.90
27544;DHT22;17996;51.056;3.656;2024-03-17T08:01:10;11.80;99.90
27544;DHT22;17996;51.056;3.656;2024-03-17T08:03:39;11.90;99.90
27544;DHT22;17996;51.056;3.656;2024-03-17T08:06:06;11.90;99.90
27544;DHT22;17996;51.056;3.656;2024-03-17T08:08:35;11.90;99.90
27544;DHT22;17996;51.056;3.656;2024-03-17T08:11:01;11.90;99.90
27544;DHT22;17996;51.056;3.656;2024-03-17T08:13:32;11.90;99.90
27544;DHT22;17996;51.056;3.656;2024-03-17T08:16:03;12.00;99.90
27544;DHT22;17996;51.056;3.656;2024-03-17T08:18:34;12.00;99.90
27544;DHT22;17996;51.056;3.656;2024-03-17T08:21:03;12.00;99.90
27544;DHT22;17996;51.056;3.656;2024-03-17T08:23:33;12.00;99.90
27544;DHT22;17996;51.056;3.656;2024-03-17T08:26:05;12.10;99.90
27544;DHT22;17996;51.056;3.656;2024-03-17T08:28:31;12.20;99.90
27544;DHT22;17996;51.056;3.656;2024-03-17T08:31:01;12.30;99.90
27544;DHT22;17996;51.056;3.656;2024-03-17T08:33:31;12.40;99.90
27544;DHT22;17996;51.056;3.656;2024-03-17T08:36:10;12.50;99.90
27544;DHT22;17996;51.056;3.656;2024-03-17T08:38:39;12.60;99.90
27544;DHT22;17996;51.056;3.656;2024-03-17T08:41:06;12.70;99.90
27544;DHT22;17996;51.056;3.656;2024-03-17T08:43:33;12.70;99.90
27544;DHT22;17996;51.056;3.656;2024-03-17T08:46:03;12.70;99.90
27544;DHT22;17996;51.056;3.656;2024-03-17T08:48:34;12.80;99.90
27544;DHT22;17996;51.056;3.656;2024-03-17T08:51:04;12.80;99.90
27544;DHT22;17996;51.056;3.656;2024-03-17T08:53:33;12.70;99.90
27544;DHT22;17996;51.056;3.656;2024-03-17T08:56:02;12.60;99.90
27544;DHT22;17996;51.056;3.656;2024-03-17T08:58:31;12.50;99.90
27544;DHT22;17996;51.056;3.656;2024-03-17T09:01:09;12.50;99.90
27544;DHT22;17996;51.056;3.656;2024-03-17T09:03:40;12.50;99.90
27544;DHT22;17996;51.056;3.656;2024-03-17T09:06:15;12.40;99.90
27544;DHT22;17996;51.056;3.656;2024-03-17T09:08:42;12.40;99.90
27544;DHT22;17996;51.056;3.656;2024-03-17T09:11:16;12.50;99.90
27544;DHT22;17996;51.056;3.656;2024-03-17T09:13:42;12.50;99.90
27544;DHT22;17996;51.056;3.656;2024-03-17T09:16:10;12.50;99.90
27544;DHT22;17996;51.056;3.656;2024-03-17T09:18:36;12.50;99.90
27544;DHT22;17996;51.056;3.656;2024-03-17T09:21:08;12.50;99.90
27544;DHT22;17996;51.056;3.656;2024-03-17T09:23:42;12.50;99.90
27544;DHT22;17996;51.056;3.656;2024-03-17T09:26:11;12.50;99.90
27544;DHT22;17996;51.056;3.656;2024-03-17T09:28:39;12.50;99.90
27544;DHT22;17996;51.056;3.656;2024-03-17T09:31:06;12.50;99.90
27544;DHT22;17996;51.056;3.656;2024-03-17T09:33:35;12.40;99.90
27544;DHT22;17996;51.056;3.656;2024-03-17T09:36:02;12.50;99.90
27544;DHT22;17996;51.056;3.656;2024-03-17T09:38:30;12.50;99.90
27544;DHT22;17996;51.056;3.656;2024-03-17T09:40:59;12.70;99.90
27544;DHT22;17996;51.056;3.656;2024-03-17T09:43:36;12.80;99.90
27544;DHT22;17996;51.056;3.656;2024-03-17T09:46:04;13.00;99.90
27544;DHT22;17996;51.056;3.656;2024-03-17T09:48:32;13.10;99.90
27544;DHT22;17996;51.056;3.656;2024-03-17T09:51:01;13.20;99.90
27544;DHT22;17996;51.056;3.656;2024-03-17T09:53:32;13.30;99.90
27544;DHT22;17996;51.056;3.656;2024-03-17T09:56:02;13.40;99.90
27544;DHT22;17996;51.056;3.656;2024-03-17T09:58:28;13.50;99.90
27544;DHT22;17996;51.056;3.656;2024-03-17T10:00:54;13.60;99.90
27544;DHT22;17996;51.056;3.656;2024-03-17T10:06:06;13.80;99.90
27544;DHT22;17996;51.056;3.656;2024-03-17T10:08:33;13.90;99.90
27544;DHT22;17996;51.056;3.656;2024-03-17T10:11:01;14.00;99.90
27544;DHT22;17996;51.056;3.656;2024-03-17T10:13:26;14.10;99.90
27544;DHT22;17996;51.056;3.656;2024-03-17T10:15:52;14.20;99.90
27544;DHT22;17996;51.056;3.656;2024-03-17T10:18:22;14.30;99.90
27544;DHT22;17996;51.056;3.656;2024-03-17T10:20:49;14.30;99.90
27544;DHT22;17996;51.056;3.656;2024-03-17T10:23:21;14.40;99.90
27544;DHT22;17996;51.056;3.656;2024-03-17T10:25:47;14.40;99.90
27544;DHT22;17996;51.056;3.656;2024-03-17T10:28:15;14.50;99.90
27544;DHT22;17996;51.056;3.656;2024-03-17T10:30:42;14.40;99.90
27544;DHT22;17996;51.056;3.656;2024-03-17T10:33:23;14.60;99.90
27544;DHT22;17996;51.056;3.656;2024-03-17T10:35:58;14.70;99.90
27544;DHT22;17996;51.056;3.656;2024-03-17T10:38:28;14.80;99.90
27544;DHT22;17996;51.056;3.656;2024-03-17T10:40:55;14.90;99.90
27544;DHT22;17996;51.056;3.656;2024-03-17T10:43:21;14.90;99.90
27544;DHT22;17996;51.056;3.656;2024-03-17T10:45:52;15.00;99.90
27544;DHT22;17996;51.056;3.656;2024-03-17T10:48:20;15.10;99.90
27544;DHT22;17996;51.056;3.656;2024-03-17T10:50:48;15.10;99.90
27544;DHT22;17996;51.056;3.656;2024-03-17T10:53:20;15.20;99.90
27544;DHT22;17996;51.056;3.656;2024-03-17T10:56:00;15.20;99.90
27544;DHT22;17996;51.056;3.656;2024-03-17T10:58:36;15.30;99.90
27544;DHT22;17996;51.056;3.656;2024-03-17T11:01:04;15.30;99.90
27544;DHT22;17996;51.056;3.656;2024-03-17T11:03:33;15.30;99.90
27544;DHT22;17996;51.056;3.656;2024-03-17T11:06:01;15.40;99.90
27544;DHT22;17996;51.056;3.656;2024-03-17T11:08:34;15.50;99.90
27544;DHT22;17996;51.056;3.656;2024-03-17T11:11:00;15.50;99.90
27544;DHT22;17996;51.056;3.656;2024-03-17T11:13:30;15.60;99.90
27544;DHT22;17996;51.056;3.656;2024-03-17T11:15:57;15.60;99.90
27544;DHT22;17996;51.056;3.656;2024-03-17T11:18:36;15.70;99.90
27544;DHT22;17996;51.056;3.656;2024-03-17T11:21:20;15.80;99.90
27544;DHT22;17996;51.056;3.656;2024-03-17T11:24:00;15.90;99.90
27544;DHT22;17996;51.056;3.656;2024-03-17T11:26:33;16.00;99.90
27544;DHT22;17996;51.056;3.656;2024-03-17T11:29:00;16.00;99.90
27544;DHT22;17996;51.056;3.656;2024-03-17T11:31:40;16.10;99.90
27544;DHT22;17996;51.056;3.656;2024-03-17T11:34:32;16.20;99.90
27544;DHT22;17996;51.056;3.656;2024-03-17T11:37:00;16.40;99.90
27544;DHT22;17996;51.056;3.656;2024-03-17T11:39:53;16.40;99.90
27544;DHT22;17996;51.056;3.656;2024-03-17T11:42:24;16.60;99.90
27544;DHT22;17996;51.056;3.656;2024-03-17T11:45:19;16.60;99.90
27544;DHT22;17996;51.056;3.656;2024-03-17T11:47:47;16.60;99.90
27544;DHT22;17996;51.056;3.656;2024-03-17T11:50:16;16.50;99.90
27544;DHT22;17996;51.056;3.656;2024-03-17T11:52:42;16.50;99.90
27544;DHT22;17996;51.056;3.656;2024-03-17T11:55:18;16.50;99.90
27544;DHT22;17996;51.056;3.656;2024-03-17T11:57:45;16.50;99.90
27544;DHT22;17996;51.056;3.656;2024-03-17T12:00:24;16.50;99.90
27544;DHT22;17996;51.056;3.656;2024-03-17T12:02:50;16.50;99.90
27544;DHT22;17996;51.056;3.656;2024-03-17T12:05:16;16.50;99.90
27544;DHT22;17996;51.056;3.656;2024-03-17T12:07:42;16.60;99.90
27544;DHT22;17996;51.056;3.656;2024-03-17T12:10:11;16.80;99.90
27544;DHT22;17996;51.056;3.656;2024-03-17T12:12:39;16.90;99.90
27544;DHT22;17996;51.056;3.656;2024-03-17T12:15:19;16.90;99.90
27544;DHT22;17996;51.056;3.656;2024-03-17T12:17:52;17.10;99.90
27544;DHT22;17996;51.056;3.656;2024-03-17T12:20:20;17.10;99.90
27544;DHT22;17996;51.056;3.656;2024-03-17T12:22:47;17.20;99.90
27544;DHT22;17996;51.056;3.656;2024-03-17T12:25:20;17.20;99.90
27544;DHT22;17996;51.056;3.656;2024-03-17T12:27:47;17.30;99.90
27544;DHT22;17996;51.056;3.656;2024-03-17T12:30:14;17.30;99.90
27544;DHT22;17996;51.056;3.656;2024-03-17T12:32:41;17.40;99.90
27544;DHT22;17996;51.056;3.656;2024-03-17T12:35:16;17.40;99.90
27544;DHT22;17996;51.056;3.656;2024-03-17T12:37:44;17.50;99.90
27544;DHT22;17996;51.056;3.656;2024-03-17T12:40:23;17.50;99.90
27544;DHT22;17996;51.056;3.656;2024-03-17T12:42:50;17.60;99.90
27544;DHT22;17996;51.056;3.656;2024-03-17T12:45:20;17.60;99.90
27544;DHT22;17996;51.056;3.656;2024-03-17T12:47:50;17.70;99.90
27544;DHT22;17996;51.056;3.656;2024-03-17T12:50:16;17.80;99.90
27544;DHT22;17996;51.056;3.656;2024-03-17T12:52:55;17.80;99.90
27544;DHT22;17996;51.056;3.656;2024-03-17T12:55:21;17.90;99.90
27544;DHT22;17996;51.056;3.656;2024-03-17T12:58:08;18.00;99.90
27544;DHT22;17996;51.056;3.656;2024-03-17T13:01:13;18.00;99.90
27544;DHT22;17996;51.056;3.656;2024-03-17T13:03:39;18.10;99.90
27544;DHT22;17996;51.056;3.656;2024-03-17T13:06:08;18.00;99.90
27544;DHT22;17996;51.056;3.656;2024-03-17T13:08:35;18.00;99.90
27544;DHT22;17996;51.056;3.656;2024-03-17T13:11:01;17.90;99.90
27544;DHT22;17996;51.056;3.656;2024-03-17T13:13:30;17.80;99.90
27544;DHT22;17996;51.056;3.656;2024-03-17T13:15:56;17.70;99.90
27544;DHT22;17996;51.056;3.656;2024-03-17T13:18:22;17.70;99.90
27544;DHT22;17996;51.056;3.656;2024-03-17T13:20:49;17.60;99.90
27544;DHT22;17996;51.056;3.656;2024-03-17T13:23:24;17.60;99.90
27544;DHT22;17996;51.056;3.656;2024-03-17T13:25:50;17.50;99.90
27544;DHT22;17996;51.056;3.656;2024-03-17T13:28:16;17.50;99.90
27544;DHT22;17996;51.056;3.656;2024-03-17T13:30:42;17.50;99.90
27544;DHT22;17996;51.056;3.656;2024-03-17T13:33:12;17.50;99.90
27544;DHT22;17996;51.056;3.656;2024-03-17T13:35:40;17.50;99.90
27544;DHT22;17996;51.056;3.656;2024-03-17T13:38:07;17.50;99.90
27544;DHT22;17996;51.056;3.656;2024-03-17T13:40:34;17.50;99.90
27544;DHT22;17996;51.056;3.656;2024-03-17T13:43:01;17.50;99.90
27544;DHT22;17996;51.056;3.656;2024-03-17T13:45:29;17.50;99.90
27544;DHT22;17996;51.056;3.656;2024-03-17T13:47:57;17.50;99.90
27544;DHT22;17996;51.056;3.656;2024-03-17T13:50:23;17.50;99.90
27544;DHT22;17996;51.056;3.656;2024-03-17T13:52:49;17.50;99.90
27544;DHT22;17996;51.056;3.656;2024-03-17T13:55:20;17.40;99.90
27544;DHT22;17996;51.056;3.656;2024-03-17T13:57:49;17.30;99.90
27544;DHT22;17996;51.056;3.656;2024-03-17T14:00:29;17.20;99.90
27544;DHT22;17996;51.056;3.656;2024-03-17T14:02:56;17.00;99.90
27544;DHT22;17996;51.056;3.656;2024-03-17T14:05:24;16.90;99.90
27544;DHT22;17996;51.056;3.656;2024-03-17T14:07:51;16.90;99.90
27544;DHT22;17996;51.056;3.656;2024-03-17T14:10:19;16.80;99.90
27544;DHT22;17996;51.056;3.656;2024-03-17T14:12:45;16.60;99.90
27544;DHT22;17996;51.056;3.656;2024-03-17T14:15:13;16.60;99.90
27544;DHT22;17996;51.056;3.656;2024-03-17T14:17:46;16.60;99.90
27544;DHT22;17996;51.056;3.656;2024-03-17T14:20:13;16.60;99.90
27544;DHT22;17996;51.056;3.656;2024-03-17T14:22:41;16.60;99.90
27544;DHT22;17996;51.056;3.656;2024-03-17T14:25:15;16.50;99.90
27544;DHT22;17996;51.056;3.656;2024-03-17T14:27:42;16.40;99.90
27544;DHT22;17996;51.056;3.656;2024-03-17T14:30:11;16.40;99.90
27544;DHT22;17996;51.056;3.656;2024-03-17T14:32:40;16.40;99.90
27544;DHT22;17996;51.056;3.656;2024-03-17T14:35:06;16.40;99.90
27544;DHT22;17996;51.056;3.656;2024-03-17T14:37:32;16.50;99.90
27544;DHT22;17996;51.056;3.656;2024-03-17T14:39:58;16.50;99.90
27544;DHT22;17996;51.056;3.656;2024-03-17T14:42:25;16.60;99.90
27544;DHT22;17996;51.056;3.656;2024-03-17T14:44:51;16.60;99.90
27544;DHT22;17996;51.056;3.656;2024-03-17T14:47:16;16.60;99.90
27544;DHT22;17996;51.056;3.656;2024-03-17T14:49:43;16.60;99.90
27544;DHT22;17996;51.056;3.656;2024-03-17T14:52:11;16.60;99.90
27544;DHT22;17996;51.056;3.656;2024-03-17T14:54:36;16.50;99.90
27544;DHT22;17996;51.056;3.656;2024-03-17T14:57:02;16.40;99.90
27544;DHT22;17996;51.056;3.656;2024-03-17T14:59:28;16.30;99.90
27544;DHT22;17996;51.056;3.656;2024-03-17T15:01:54;16.20;99.90
27544;DHT22;17996;51.056;3.656;2024-03-17T15:04:20;16.10;99.90
27544;DHT22;17996;51.056;3.656;2024-03-17T15:06:47;16.10;99.90
27544;DHT22;17996;51.056;3.656;2024-03-17T15:09:15;16.10;99.90
27544;DHT22;17996;51.056;3.656;2024-03-17T15:11:45;16.10;99.90
27544;DHT22;17996;51.056;3.656;2024-03-17T15:14:12;16.00;99.90
27544;DHT22;17996;51.056;3.656;2024-03-17T15:16:38;16.00;99.90
27544;DHT22;17996;51.056;3.656;2024-03-17T15:19:07;16.00;99.90
27544;DHT22;17996;51.056;3.656;2024-03-17T15:21:33;16.00;99.90
27544;DHT22;17996;51.056;3.656;2024-03-17T15:24:01;16.00;99.90
27544;DHT22;17996;51.056;3.656;2024-03-17T15:26:30;16.00;99.90
27544;DHT22;17996;51.056;3.656;2024-03-17T15:28:56;16.00;99.90
27544;DHT22;17996;51.056;3.656;2024-03-17T15:31:23;16.00;99.90
27544;DHT22;17996;51.056;3.656;2024-03-17T15:33:51;15.90;99.90
27544;DHT22;17996;51.056;3.656;2024-03-17T15:36:17;15.90;99.90
27544;DHT22;17996;51.056;3.656;2024-03-17T15:38:43;15.90;99.90
27544;DHT22;17996;51.056;3.656;2024-03-17T15:41:10;15.90;99.90
27544;DHT22;17996;51.056;3.656;2024-03-17T15:43:37;15.80;99.90
27544;DHT22;17996;51.056;3.656;2024-03-17T15:46:19;15.80;99.90
27544;DHT22;17996;51.056;3.656;2024-03-17T15:48:49;15.80;99.90
27544;DHT22;17996;51.056;3.656;2024-03-17T15:51:15;15.70;99.90
27544;DHT22;17996;51.056;3.656;2024-03-17T15:53:50;15.70;99.90
27544;DHT22;17996;51.056;3.656;2024-03-17T15:56:15;15.60;99.90